Time;durP1;ratioP1;P1;durP2;ratioP2;P2;SDS_P1;SDS_P2;PMS_P1;PMS_P2;Temp;Humidity;BMP_temperature;BMP_pressure;BME280_temperature;BME280_humidity;BME280_pressure;Samples;Min_cycle;Max_cycle;Signal;HPM_P1;HPM_P2
2023/01/29 00:09:40;;;;;;;42.93;20.73;;;0.90;99.90;;;;;;5041576;23;20204;-95
2023/01/29 00:12:36;;;;;;;40.73;20.50;;;0.80;99.90;;;;;;5058501;23;20158;-95
2023/01/29 00:15:40;;;;;;;;;;;;;;;;;;;;;
2023/01/29 00:18:51;;;;;;;40.80;20.10;;;0.90;99.90;;;;;;5065100;23;20256;-94
2023/01/29 00:21:30;;;;;;;;;;;;;;;;;;;;;
2023/01/29 00:24:26;;;;;;;40.17;20.83;;;0.90;99.90;;;;;;5083731;23;20182;-95
2023/01/29 00:27:28;;;;;;;;;;;;;;;;;;;;;
2023/01/29 00:30:32;;;;;;;46.70;21.77;;;0.90;99.90;;;;;;5074788;23;20242;-94
2023/01/29 00:33:26;;;;;;;42.83;22.33;;;0.90;99.90;;;;;;5056583;23;20150;-93
2023/01/29 00:38:38;;;;;;;45.17;22.53;;;0.70;99.90;;;;;;5061854;23;20228;-94
2023/01/29 00:46:11;;;;;;;;;;;;;;;;;;;;;
2023/01/29 00:48:25;;;;;;;46.50;22.50;;;0.70;99.90;;;;;;5028146;23;20189;-95
2023/01/29 00:50:39;;;;;;;;;;;;;;;;;;;;;
2023/01/29 00:52:54;;;;;;;47.63;22.57;;;0.70;99.90;;;;;;5078362;23;20211;-94
2023/01/29 00:55:06;;;;;;;47.10;22.80;;;0.80;99.90;;;;;;5055003;23;20161;-96
2023/01/29 00:57:09;;;;;;;43.10;23.03;;;0.70;99.90;;;;;;5031259;23;20158;-93
2023/01/29 00:59:13;;;;;;;48.73;24.83;;;0.50;99.90;;;;;;5053654;23;20606;-95
2023/01/29 01:03:04;;;;;;;46.70;22.77;;;0.30;99.90;;;;;;5055586;23;20318;-94
2023/01/29 01:03:41;;;;;;;47.27;22.83;;;0.30;99.90;;;;;;5051783;23;20256;-94
2023/01/29 01:05:42;;;;;;;44.97;23.60;;;0.20;99.90;;;;;;5032252;23;20182;-94
2023/01/29 01:07:51;;;;;;;49.47;23.63;;;0.30;99.90;;;;;;5056931;23;20170;-94
2023/01/29 01:12:14;;;;;;;46.23;22.97;;;0.20;99.90;;;;;;5051966;23;20237;-94
2023/01/29 01:14:20;;;;;;;54.97;25.60;;;0.20;99.90;;;;;;5056451;23;20657;-95
2023/01/29 01:16:21;;;;;;;49.57;24.07;;;0.10;99.90;;;;;;5078278;23;20573;-94
2023/01/29 01:18:21;;;;;;;53.00;25.63;;;0.10;99.90;;;;;;5053804;23;20178;-94
2023/01/29 01:20:28;;;;;;;53.97;25.23;;;0.10;99.90;;;;;;5030092;23;20238;-94
2023/01/29 01:22:30;;;;;;;54.73;25.30;;;0.10;99.90;;;;;;5056653;23;20333;-95
2023/01/29 01:24:31;;;;;;;47.10;22.67;;;0.20;99.90;;;;;;5056121;23;20161;-93
2023/01/29 01:26:36;;;;;;;49.57;24.83;;;0.20;99.90;;;;;;5056934;23;20142;-93
2023/01/29 01:28:36;;;;;;;52.90;26.43;;;0.10;99.90;;;;;;5055320;23;20169;-95
2023/01/29 01:30:40;;;;;;;53.77;26.20;;;0.10;99.90;;;;;;5054695;23;20150;-94
2023/01/29 01:32:42;;;;;;;50.47;24.70;;;0.10;99.90;;;;;;5049661;23;20162;-94
2023/01/29 01:34:51;;;;;;;52.50;25.60;;;0.20;99.90;;;;;;5056664;23;20162;-94
2023/01/29 01:36:56;;;;;;;50.80;24.17;;;0.10;99.90;;;;;;5050831;23;20158;-94
2023/01/29 01:38:57;;;;;;;55.40;25.40;;;0.10;99.90;;;;;;5050886;23;20495;-94
2023/01/29 01:41:01;;;;;;;56.30;25.80;;;0.20;99.90;;;;;;5056357;23;20548;-93
2023/01/29 01:43:03;;;;;;;54.07;25.23;;;0.20;99.90;;;;;;5054548;23;20154;-93
2023/01/29 01:45:21;;;;;;;54.63;25.53;;;0.20;99.90;;;;;;5053996;23;20506;-95
2023/01/29 01:47:57;;;;;;;53.43;25.67;;;0.20;99.90;;;;;;5033815;23;20281;-96
2023/01/29 01:50:18;;;;;;;52.50;25.00;;;0.30;99.90;;;;;;5056480;23;20166;-94
2023/01/29 01:52:21;;;;;;;50.07;24.07;;;0.20;99.90;;;;;;5031354;23;20170;-95
2023/01/29 01:54:30;;;;;;;61.53;25.87;;;0.20;99.90;;;;;;5058582;23;20154;-95
2023/01/29 01:56:43;;;;;;;57.47;25.70;;;0.40;99.90;;;;;;5035676;23;20170;-96
2023/01/29 01:58:55;;;;;;;55.57;26.33;;;0.30;99.90;;;;;;5053050;23;20182;-93
2023/01/29 02:00:56;;;;;;;53.63;25.90;;;0.10;99.90;;;;;;5055161;23;20217;-93
2023/01/29 02:10:29;;;;;;;47.20;23.77;;;-0.10;99.90;;;;;;5081873;23;20193;-94
2023/01/29 02:12:31;;;;;;;54.07;25.87;;;0.00;99.90;;;;;;5052955;23;20171;-94
2023/01/29 02:14:37;;;;;;;52.90;24.37;;;-0.10;99.90;;;;;;5055879;23;20160;-93
2023/01/29 02:16:38;;;;;;;54.43;25.67;;;-0.10;99.90;;;;;;5056368;23;20158;-93
2023/01/29 02:18:39;;;;;;;53.97;24.93;;;-0.10;99.90;;;;;;5056176;23;20161;-93
2023/01/29 02:21:04;;;;;;;57.53;26.43;;;-0.10;99.90;;;;;;5034201;23;20155;-94
2023/01/29 02:23:43;;;;;;;52.23;24.67;;;-0.10;99.90;;;;;;5057294;23;20157;-94
2023/01/29 02:26:00;;;;;;;49.20;23.67;;;0.00;99.90;;;;;;5057823;23;20152;-96
2023/01/29 02:28:22;;;;;;;58.23;26.07;;;0.00;99.90;;;;;;5031590;23;20178;-96
2023/01/29 02:30:34;;;;;;;57.77;25.47;;;0.10;99.90;;;;;;5030697;23;20162;-95
2023/01/29 02:33:01;;;;;;;54.50;25.23;;;0.10;99.90;;;;;;5031157;23;20162;-93
2023/01/29 02:35:30;;;;;;;53.60;24.20;;;0.10;99.90;;;;;;5026437;23;20227;-93
2023/01/29 02:38:00;;;;;;;60.57;24.90;;;0.00;99.90;;;;;;5027484;23;20562;-94
2023/01/29 02:40:29;;;;;;;62.23;24.67;;;-0.10;99.90;;;;;;5031713;23;20135;-96
2023/01/29 02:43:05;;;;;;;49.13;23.47;;;-0.10;99.90;;;;;;5077336;23;20261;-96
2023/01/29 02:45:16;;;;;;;50.97;23.57;;;0.00;99.90;;;;;;5041683;23;20325;-95
2023/01/29 02:47:23;;;;;;;55.90;25.10;;;0.10;99.90;;;;;;5056786;23;20193;-96
2023/01/29 02:49:46;;;;;;;56.50;26.13;;;0.10;99.90;;;;;;5029438;23;20491;-94
2023/01/29 02:52:18;;;;;;;56.93;26.20;;;0.20;99.90;;;;;;5053606;23;20166;-96
2023/01/29 02:54:23;;;;;;;51.90;24.83;;;0.30;99.90;;;;;;5029262;23;20219;-96
2023/01/29 02:56:56;;;;;;;58.17;26.03;;;0.30;99.90;;;;;;5029439;23;20186;-93
2023/01/29 02:59:05;;;;;;;59.40;27.03;;;0.20;99.90;;;;;;5055492;23;20166;-93
2023/01/29 03:01:30;;;;;;;57.40;27.07;;;0.00;99.90;;;;;;5032580;23;20194;-93
2023/01/29 03:03:39;;;;;;;58.17;25.97;;;-0.10;99.90;;;;;;5032140;23;20689;-93
2023/01/29 03:06:22;;;;;;;56.97;27.37;;;-0.10;99.90;;;;;;5031572;23;20237;-93
2023/01/29 03:08:52;;;;;;;59.13;28.37;;;-0.10;99.90;;;;;;5055238;23;20163;-92
2023/01/29 03:11:05;;;;;;;56.70;26.83;;;-0.10;99.90;;;;;;5050390;23;20656;-93
2023/01/29 03:13:20;;;;;;;57.03;26.23;;;-0.10;99.90;;;;;;5051665;23;20142;-93
2023/01/29 03:15:28;;;;;;;64.43;28.30;;;-0.10;99.90;;;;;;5056455;23;20676;-96
2023/01/29 03:18:13;;;;;;;62.93;27.73;;;0.00;99.90;;;;;;5058828;23;20244;-94
2023/01/29 03:20:24;;;;;;;59.10;27.77;;;0.20;99.90;;;;;;5058559;23;20206;-96
2023/01/29 03:22:26;;;;;;;67.07;31.50;;;0.20;99.90;;;;;;5004266;23;20234;-95
2023/01/29 03:32:29;;;;;;;52.50;24.77;;;0.00;99.90;;;;;;5008687;23;20172;-95
2023/01/29 03:34:50;;;;;;;56.33;25.93;;;0.00;99.90;;;;;;4984555;23;20191;-96
2023/01/29 03:37:00;;;;;;;54.43;26.30;;;0.00;99.90;;;;;;4989175;23;20185;-95
2023/01/29 03:39:03;;;;;;;60.43;26.73;;;0.20;99.90;;;;;;4958573;23;20200;-95
2023/01/29 03:41:21;;;;;;;57.20;27.80;;;0.20;99.90;;;;;;4982728;23;20259;-93
2023/01/29 03:43:51;;;;;;;76.87;34.97;;;0.30;99.90;;;;;;5006658;23;20163;-93
2023/01/29 03:46:33;;;;;;;65.77;30.07;;;0.50;99.90;;;;;;4988178;23;20245;-93
2023/01/29 03:48:46;;;;;;;67.93;31.27;;;0.50;99.90;;;;;;5009939;23;20205;-95
2023/01/29 03:51:14;;;;;;;66.20;29.73;;;0.50;99.90;;;;;;4988118;23;20149;-96
2023/01/29 03:53:42;;;;;;;62.13;28.33;;;0.70;99.90;;;;;;4987792;23;20172;-95
2023/01/29 03:56:09;;;;;;;60.00;26.87;;;0.70;99.90;;;;;;4984983;23;20166;-95
2023/01/29 03:58:46;;;;;;;55.40;26.67;;;0.70;99.90;;;;;;4984351;23;20188;-96
2023/01/29 04:01:07;;;;;;;55.97;24.73;;;0.60;99.90;;;;;;5030425;23;20506;-95
2023/01/29 04:03:32;;;;;;;54.27;24.73;;;0.40;99.90;;;;;;4987765;23;20180;-96
2023/01/29 04:05:46;;;;;;;52.00;24.30;;;0.40;99.90;;;;;;4988136;23;20164;-96
2023/01/29 04:08:05;;;;;;;54.70;25.10;;;0.40;99.90;;;;;;4987615;23;20220;-95
2023/01/29 04:10:50;;;;;;;56.40;25.60;;;0.30;99.90;;;;;;4982867;23;20160;-95
2023/01/29 04:13:08;;;;;;;54.33;25.23;;;0.40;99.90;;;;;;4988884;23;20471;-95
2023/01/29 04:15:14;;;;;;;54.77;25.67;;;0.40;99.90;;;;;;4985629;23;20140;-95
2023/01/29 04:17:28;;;;;;;54.53;24.60;;;0.50;99.90;;;;;;4985409;23;20491;-96
2023/01/29 04:20:03;;;;;;;59.80;25.30;;;0.50;99.90;;;;;;5006531;23;20140;-96
2023/01/29 04:22:17;;;;;;;55.30;24.43;;;0.60;99.90;;;;;;5007154;23;20183;-95
2023/01/29 04:24:26;;;;;;;58.73;25.73;;;0.60;99.90;;;;;;5007090;23;20155;-96
2023/01/29 04:26:55;;;;;;;59.50;26.67;;;0.60;99.90;;;;;;5006819;23;20162;-96
2023/01/29 04:29:44;;;;;;;57.27;25.97;;;0.60;99.90;;;;;;4959538;23;20189;-95
2023/01/29 04:32:12;;;;;;;56.40;25.40;;;0.60;99.90;;;;;;4913897;24;20213;-96
2023/01/29 04:34:39;;;;;;;53.07;25.63;;;0.70;99.90;;;;;;4983960;23;20237;-96
2023/01/29 04:37:01;;;;;;;60.00;25.00;;;0.70;99.90;;;;;;5007287;23;20156;-96
2023/01/29 04:39:27;;;;;;;54.50;25.60;;;0.70;99.90;;;;;;5031761;23;20163;-96
2023/01/29 04:41:57;;;;;;;53.17;25.33;;;0.80;99.90;;;;;;4962261;23;20201;-95
2023/01/29 04:44:32;;;;;;;57.00;25.13;;;0.80;99.90;;;;;;4981905;23;20216;-95
2023/01/29 04:46:50;;;;;;;52.63;24.40;;;0.70;99.90;;;;;;4956744;23;20485;-95
2023/01/29 04:49:22;;;;;;;56.07;26.97;;;0.80;99.90;;;;;;4983336;23;20176;-95
2023/01/29 04:51:47;;;;;;;54.27;25.50;;;0.80;99.90;;;;;;4983403;23;20561;-96
2023/01/29 04:54:11;;;;;;;53.57;23.43;;;0.80;99.90;;;;;;4983711;23;20149;-96
2023/01/29 04:56:26;;;;;;;53.77;24.50;;;0.80;99.90;;;;;;5006197;23;20164;-96
2023/01/29 04:58:39;;;;;;;56.60;25.63;;;0.80;99.90;;;;;;4961347;23;20189;-96
2023/01/29 05:00:49;;;;;;;54.13;25.63;;;0.90;99.90;;;;;;4982350;23;20140;-95
2023/01/29 05:02:59;;;;;;;56.13;25.97;;;1.00;99.90;;;;;;4983137;23;20191;-96
2023/01/29 05:05:11;;;;;;;56.00;25.33;;;1.00;99.90;;;;;;5002375;23;20186;-96
2023/01/29 05:07:22;;;;;;;55.27;25.43;;;0.90;99.90;;;;;;5012277;23;20147;-95
2023/01/29 05:09:44;;;;;;;52.63;24.03;;;1.00;99.90;;;;;;5007736;23;20167;-96
2023/01/29 05:12:11;;;;;;;48.47;23.30;;;1.10;99.90;;;;;;5009408;23;20144;-96
2023/01/29 05:14:34;;;;;;;;;;;;;;;;;;;;;
2023/01/29 05:17:42;;;;;;;51.30;24.40;;;1.10;99.90;;;;;;5011887;23;20167;-96
2023/01/29 05:20:06;;;;;;;;;;;;;;;;;;;;;
2023/01/29 05:23:02;;;;;;;;;;;;;;;;;;;;;
2023/01/29 05:25:32;;;;;;;;;;;;;;;;;;;;;
2023/01/29 05:30:22;;;;;;;49.00;24.83;;;1.40;99.90;;;;;;5005211;23;20151;-96
2023/01/29 05:32:48;;;;;;;58.43;25.20;;;1.30;99.90;;;;;;4969490;23;20224;-96
2023/01/29 05:35:21;;;;;;;52.00;24.40;;;1.10;99.90;;;;;;5011571;23;20614;-96
2023/01/29 05:39:59;;;;;;;59.27;25.87;;;1.30;99.90;;;;;;5058377;23;20190;-94
2023/01/29 05:42:33;;;;;;;;;;;;;;;;;;;;;
2023/01/29 05:44:53;;;;;;;54.57;25.40;;;1.30;99.90;;;;;;5054249;23;20645;-94
2023/01/29 05:50:05;;;;;;;55.10;25.50;;;1.30;99.90;;;;;;5020603;23;20583;-95
2023/01/29 05:52:46;;;;;;;61.00;25.73;;;1.10;99.90;;;;;;4983468;23;20196;-96
2023/01/29 05:54:53;;;;;;;56.80;25.33;;;1.10;99.90;;;;;;4984941;23;20183;-96
2023/01/29 05:57:33;;;;;;;56.63;26.30;;;1.10;99.90;;;;;;5010140;23;20140;-96
2023/01/29 06:03:23;;;;;;;62.13;25.87;;;1.10;99.90;;;;;;5002952;23;20215;-96
2023/01/29 06:06:11;;;;;;;56.73;26.37;;;1.10;99.90;;;;;;5003559;23;20163;-96
2023/01/29 08:37:36;;;;;;;;;;;;;;;;;;;;;
